createdAt,value
2022-11-04T00:03:58.204Z,79.64
2022-11-04T00:09:01.282Z,80.69
2022-11-04T00:14:06.019Z,88.75
2022-11-04T00:19:08.596Z,94.51
2022-11-04T00:24:44.689Z,90.45
2022-11-04T00:29:49.071Z,100.00
2022-11-04T00:34:51.657Z,95.58
2022-11-04T00:39:54.253Z,93.86
2022-11-04T00:44:58.243Z,93.18
2022-11-04T00:50:00.843Z,91.21
2022-11-04T00:55:03.625Z,93.61
2022-11-04T01:00:09.189Z,90.86
2022-11-04T01:05:11.777Z,93.63
2022-11-04T01:10:14.416Z,92.09
2022-11-04T01:15:18.699Z,92.22
2022-11-04T01:20:21.402Z,94.87
2022-11-04T01:25:24.208Z,92.98
2022-11-04T01:30:28.119Z,91.60
2022-11-04T01:35:30.763Z,94.88
2022-11-04T01:40:37.498Z,94.90
2022-11-04T01:45:42.935Z,94.96
2022-11-04T01:50:45.787Z,93.92
2022-11-04T01:55:52.526Z,93.36
2022-11-04T02:00:56.548Z,91.76
2022-11-04T02:06:00.677Z,91.93
2022-11-04T02:11:05.063Z,93.04
2022-11-04T02:16:17.790Z,96.16
2022-11-04T02:22:01.996Z,94.34
2022-11-04T02:27:37.350Z,95.66
2022-11-04T02:33:06.738Z,93.88
2022-11-04T02:38:18.332Z,94.56
2022-11-04T02:43:26.542Z,95.93
2022-11-04T02:48:38.877Z,95.89
2022-11-04T02:53:46.604Z,96.63
2022-11-04T02:58:55.778Z,97.15
2022-11-04T03:04:05.285Z,99.72
2022-11-04T03:09:11.676Z,99.81
2022-11-04T03:14:16.657Z,100.00
2022-11-04T03:19:27.919Z,98.86
2022-11-04T03:24:32.398Z,96.42
2022-11-04T03:29:37.363Z,95.84
2022-11-04T03:34:41.129Z,95.71
2022-11-04T03:39:43.835Z,95.75
2022-11-04T03:44:47.952Z,97.64
2022-11-04T03:49:55.709Z,95.57
2022-11-04T03:54:58.536Z,95.69
2022-11-04T04:00:10.351Z,96.64
2022-11-04T04:05:21.265Z,100.00
2022-11-04T04:10:41.874Z,98.27
2022-11-04T04:15:50.663Z,99.40
2022-11-04T04:20:57.533Z,97.48
2022-11-04T04:26:23.587Z,97.70
2022-11-04T04:31:45.548Z,100.00
2022-11-04T04:36:54.302Z,100.00
2022-11-04T04:42:14.961Z,100.00
2022-11-04T04:47:21.887Z,100.00
2022-11-04T04:52:28.703Z,99.87
2022-11-04T04:57:31.493Z,97.82
2022-11-04T05:02:34.229Z,100.00
2022-11-04T05:07:38.376Z,100.00
2022-11-04T05:12:59.181Z,100.00
2022-11-04T05:18:03.261Z,100.00
2022-11-04T05:23:07.775Z,100.00
2022-11-04T05:28:10.906Z,100.00
2022-11-04T05:33:13.676Z,100.00
2022-11-04T05:38:17.646Z,99.10
2022-11-04T05:43:20.510Z,100.00
2022-11-04T05:48:24.188Z,99.17
2022-11-04T05:58:35.994Z,99.93
2022-11-04T06:03:38.691Z,98.29
2022-11-04T06:08:45.283Z,96.88
2022-11-04T06:13:48.161Z,95.34
2022-11-04T06:18:50.807Z,100.00
2022-11-04T06:23:56.836Z,100.00
2022-11-04T06:28:59.488Z,100.00
2022-11-04T06:34:02.156Z,100.00
2022-11-04T06:39:06.546Z,100.00
2022-11-04T06:44:09.245Z,100.00
2022-11-04T06:49:14.576Z,99.63
2022-11-04T06:54:19.396Z,100.00
2022-11-04T06:59:22.062Z,100.00
2022-11-04T07:04:24.743Z,99.62
2022-11-04T07:09:28.670Z,98.12
2022-11-04T07:14:31.437Z,95.78
2022-11-04T07:19:34.123Z,97.75
2022-11-04T07:24:40.663Z,95.57
2022-11-04T07:29:43.284Z,94.47
2022-11-04T07:34:45.848Z,98.97
2022-11-04T07:39:49.735Z,97.18
2022-11-04T07:44:52.311Z,96.41
2022-11-04T07:50:11.324Z,97.05
2022-11-04T07:55:25.014Z,96.78
2022-11-04T08:00:29.627Z,98.18
2022-11-04T08:05:32.253Z,97.86
2022-11-04T08:10:39.532Z,97.39
2022-11-04T08:15:44.287Z,97.02
2022-11-04T08:20:50.024Z,96.87
2022-11-04T08:25:54.136Z,93.75
2022-11-04T08:31:01.248Z,93.43
2022-11-04T08:36:09.524Z,94.03
2022-11-04T08:41:15.549Z,91.37
2022-11-04T08:46:18.542Z,91.91
2022-11-04T08:51:23.822Z,89.69
2022-11-04T08:56:30.376Z,88.49
2022-11-04T09:01:36.807Z,88.14
2022-11-04T09:06:41.876Z,87.45
2022-11-04T09:12:06.296Z,85.26
2022-11-04T09:17:19.574Z,85.50
2022-11-04T09:22:22.338Z,86.50
2022-11-04T09:27:28.391Z,88.87
2022-11-04T09:32:33.280Z,89.01
2022-11-04T09:37:40.700Z,90.17
2022-11-04T09:43:55.420Z,89.84
2022-11-04T09:49:03.622Z,91.25
2022-11-04T09:54:29.536Z,90.28
2022-11-04T10:05:37.919Z,88.62
2022-11-04T10:11:03.680Z,87.01
2022-11-04T10:16:38.793Z,86.65
2022-11-04T10:22:01.618Z,85.75
2022-11-04T10:27:14.174Z,87.34
2022-11-04T10:37:56.124Z,82.50
2022-11-04T10:43:00.589Z,84.40
2022-11-04T10:48:07.020Z,83.82
2022-11-04T10:53:48.767Z,84.26
2022-11-04T10:58:58.621Z,84.01
2022-11-04T11:04:29.446Z,82.55
2022-11-04T11:09:35.019Z,84.31
2022-11-04T11:14:40.063Z,82.00
2022-11-04T11:19:51.678Z,83.40
2022-11-04T11:24:54.395Z,82.39
2022-11-04T11:29:57.247Z,83.45
2022-11-04T11:35:04.316Z,83.03
2022-11-04T11:40:25.834Z,82.33
2022-11-04T11:45:29.157Z,82.22
2022-11-04T11:50:35.008Z,83.10
2022-11-04T11:55:39.205Z,81.96
2022-11-04T12:00:51.970Z,81.05
2022-11-04T12:11:29.277Z,81.16
2022-11-04T12:16:39.174Z,80.71
2022-11-04T12:21:48.169Z,80.95
2022-11-04T12:26:59.940Z,81.46
2022-11-04T12:32:10.289Z,81.75
2022-11-04T12:37:26.727Z,80.96
2022-11-04T12:42:44.807Z,79.33
2022-11-04T12:47:48.620Z,78.12
2022-11-04T12:53:14.312Z,76.71
2022-11-04T12:58:29.823Z,76.45
2022-11-04T13:03:37.543Z,75.45
2022-11-04T13:08:47.756Z,74.27
2022-11-04T13:14:02.200Z,77.01
2022-11-04T13:19:07.162Z,77.12
2022-11-04T13:24:22.199Z,76.74
2022-11-04T13:29:26.560Z,78.63
2022-11-04T13:34:49.403Z,79.05
2022-11-04T13:39:58.815Z,77.50
2022-11-04T13:45:12.128Z,76.55
2022-11-04T13:50:29.763Z,75.90
2022-11-04T13:55:35.529Z,77.24
2022-11-04T14:00:39.860Z,76.02
2022-11-04T14:06:12.557Z,76.35
2022-11-04T14:11:16.513Z,76.60
2022-11-04T14:16:40.150Z,76.22
2022-11-04T14:22:07.738Z,76.51
2022-11-04T14:27:25.587Z,76.56
2022-11-04T14:32:32.903Z,76.50
2022-11-04T14:37:37.666Z,76.58
2022-11-04T14:42:49.935Z,76.66
2022-11-04T14:48:15.551Z,76.75
2022-11-04T14:53:24.635Z,76.67
2022-11-04T14:58:33.875Z,78.73
2022-11-04T15:04:10.966Z,77.78
2022-11-04T15:09:01.663Z,79.19
2022-11-04T15:14:15.773Z,81.49
2022-11-04T15:19:28.214Z,81.50
2022-11-04T15:24:39.046Z,82.76
2022-11-04T15:30:24.720Z,85.29
2022-11-04T15:35:31.713Z,84.19
2022-11-04T15:41:00.592Z,85.10
2022-11-04T15:46:10.266Z,85.53
2022-11-04T15:51:17.220Z,87.58
2022-11-04T15:56:26.026Z,85.95
2022-11-04T16:01:32.804Z,88.59
2022-11-04T16:06:38.279Z,86.57
2022-11-04T16:11:41.336Z,88.43
2022-11-04T16:16:50.755Z,98.69
2022-11-04T16:22:01.909Z,99.85
2022-11-04T16:27:09.124Z,98.19
2022-11-04T16:32:19.727Z,92.01
2022-11-04T16:37:22.431Z,89.58
2022-11-04T16:42:25.316Z,89.21
2022-11-04T16:47:30.790Z,88.99
2022-11-04T16:52:33.462Z,92.19
2022-11-04T16:57:36.379Z,98.53
2022-11-04T17:02:41.640Z,94.47
2022-11-04T17:07:53.647Z,91.52
2022-11-04T17:12:58.157Z,94.68
2022-11-04T17:18:02.319Z,96.08
2022-11-04T17:23:05.074Z,91.33
2022-11-04T17:28:07.811Z,91.17
2022-11-04T17:33:14.650Z,91.91
2022-11-04T17:38:18.719Z,92.99
2022-11-04T17:43:38.881Z,90.70
2022-11-04T17:48:45.425Z,91.42
2022-11-04T17:53:49.400Z,91.05
2022-11-04T17:58:53.320Z,93.20
2022-11-04T18:03:58.074Z,91.17
2022-11-04T18:09:00.918Z,93.35
2022-11-04T18:14:03.625Z,90.72
2022-11-04T18:19:07.744Z,89.11
2022-11-04T18:24:10.753Z,88.75
2022-11-04T18:29:13.698Z,87.99
2022-11-04T18:34:19.930Z,88.56
2022-11-04T18:39:22.899Z,93.59
2022-11-04T18:44:25.496Z,94.04
2022-11-04T18:49:29.932Z,95.31
2022-11-04T18:54:32.771Z,98.81
2022-11-04T18:59:35.438Z,100.00
2022-11-04T19:04:39.474Z,100.00
2022-11-04T19:09:47.185Z,97.45
2022-11-04T19:14:50.702Z,100.00
2022-11-04T19:19:54.869Z,100.00
2022-11-04T19:24:57.523Z,97.98
2022-11-04T19:30:00.175Z,94.35
2022-11-04T19:35:04.299Z,100.00
2022-11-04T19:40:08.099Z,98.03
2022-11-04T19:45:10.861Z,99.09
2022-11-04T19:50:15.053Z,100.00
2022-11-04T19:55:17.801Z,97.47
2022-11-04T20:00:20.872Z,95.57
2022-11-04T20:05:25.183Z,96.94
2022-11-04T20:10:27.958Z,95.09
2022-11-04T20:15:30.957Z,91.95
2022-11-04T20:20:35.195Z,95.25
2022-11-04T20:25:38.202Z,95.05
2022-11-04T20:30:44.010Z,93.24
2022-11-04T20:35:48.406Z,97.37
2022-11-04T20:40:51.267Z,97.17
2022-11-04T20:45:54.063Z,98.58
2022-11-04T20:50:58.189Z,100.00
2022-11-04T20:56:00.885Z,100.00
2022-11-04T21:01:05.434Z,96.30
2022-11-04T21:06:11.638Z,100.00
2022-11-04T21:11:31.746Z,100.00
2022-11-04T21:16:35.887Z,97.03
2022-11-04T21:21:41.907Z,95.32
2022-11-04T21:26:45.601Z,97.97
2022-11-04T21:31:49.732Z,93.35
2022-11-04T21:36:54.011Z,92.40
2022-11-04T21:42:02.431Z,92.81
2022-11-04T21:47:05.268Z,94.44
2022-11-04T21:52:13.663Z,92.97
2022-11-04T21:57:17.728Z,96.20
2022-11-04T22:02:20.664Z,100.00
2022-11-04T22:07:54.438Z,100.00
2022-11-04T22:12:57.440Z,100.00
2022-11-04T22:18:00.441Z,100.00
2022-11-04T22:23:05.093Z,100.00
2022-11-04T22:28:07.954Z,100.00
2022-11-04T22:33:11.014Z,97.51
2022-11-04T22:38:15.798Z,95.73
2022-11-04T22:43:18.586Z,98.39
2022-11-04T22:48:21.746Z,100.00
2022-11-04T22:53:26.243Z,100.00
2022-11-04T22:58:28.797Z,100.00
2022-11-04T23:03:31.901Z,100.00
2022-11-04T23:08:37.472Z,100.00
2022-11-04T23:14:06.625Z,100.00
2022-11-04T23:19:09.309Z,100.00
2022-11-04T23:24:30.897Z,98.86
2022-11-04T23:29:51.151Z,95.63
2022-11-04T23:35:11.397Z,95.34
2022-11-04T23:40:15.462Z,96.17
2022-11-04T23:45:36.170Z,95.43
2022-11-04T23:50:56.215Z,95.03
2022-11-04T23:56:18.611Z,94.66
